Syoueimaru — JL6084 — position and weather

sailwx.info

Track history (hours):
 
Tides and Currents Weather Stations Pressure Air Temp Water Temp Dewpoint Dewpoint Depression Visibility Wind Speed Wind Dir Waves Ship Positions

Syoueimaru

Last reported at 2018-Feb-24 18:22 UTC. Time now 2018-Feb-26 03:52 UTC.
Position N 34°21' E 134°26'.

Length 79 m; draft 4.1 m.

Type: Other ship. MMSI: 431500094.

Date/timePositionNaut miles runAvg speedWind from/ knotsBaromVisibWave heightAir tempDewpointWater temp
2018-Feb-24 18:22N 34°21' E 134°26'511.3
2018-Feb-24 17:56N 34°19' E 134°31'811.2
2018-Feb-24 17:14N 34°14' E 134°39'311.5
2018-Feb-24 16:58N 34°12' E 134°41'611.7
2018-Feb-24 16:29N 34°08' E 134°46'510.4
2018-Feb-24 16:00N 34°04' E 134°50'610.5
2018-Feb-24 15:29N 33°60' E 134°54'510.5
2018-Feb-24 14:58N 33°56' E 134°58'510.4
2018-Feb-24 14:29N 33°52' E 135°02'119 5.9
2018-Feb-23 18:25N 34°30' E 137°18'54 8.7
2018-Feb-23 12:11N 34°34' E 138°24'2 8.2
2018-Feb-23 11:58N 34°34' E 138°26'6 8.2
2018-Feb-23 11:15N 34°35' E 138°33'4 7.7
2018-Feb-23 10:46N 34°35' E 138°38'2 7.7
2018-Feb-23 10:27N 34°35' E 138°41'4 7.6
2018-Feb-23 09:59N 34°35' E 138°45'4 8.2
2018-Feb-23 09:28N 34°35' E 138°50'4 8.8
2018-Feb-23 09:00N 34°36' E 138°55'7 9.4
2018-Feb-23 08:13N 34°40' E 139°03'310.4
2018-Feb-23 07:56N 34°42' E 139°05'510.6
2018-Feb-23 07:27N 34°46' E 139°10'810.1
2018-Feb-23 06:39N 34°50' E 139°17'3 9.5
2018-Feb-23 06:17N 34°53' E 139°21'1010.1
2018-Feb-23 05:19N 34°59' E 139°30'310.2
2018-Feb-23 05:00N 35°01' E 139°33'510.6
2018-Feb-23 04:30N 35°05' E 139°37'510.4
2018-Feb-23 04:00N 35°08' E 139°42'510.5
2018-Feb-23 03:30N 35°12' E 139°46'510.2
2018-Feb-23 03:00N 35°17' E 139°44'510.6
2018-Feb-23 02:30N 35°22' E 139°41'2 4.3
2018-Feb-23 02:00N 35°23' E 139°39'0 0.0
2018-Feb-23 01:30N 35°23' E 139°39'0 0.0
2018-Feb-23 01:00N 35°23' E 139°39'0 0.0
2018-Feb-23 00:30N 35°23' E 139°39'0 0.0
2018-Feb-23 00:00N 35°23' E 139°39'0 0.0
2018-Feb-22 23:30N 35°23' E 139°39'0 0.0
2018-Feb-22 23:00N 35°23' E 139°39'1 2.5
2018-Feb-22 22:30N 35°23' E 139°41'3 6.0
2018-Feb-22 22:00N 35°22' E 139°44'0 0.0
2018-Feb-22 21:30N 35°22' E 139°44'0 0.0
2018-Feb-22 20:57N 35°22' E 139°44'0 0.0
2018-Feb-22 20:30N 35°22' E 139°44'0 0.0
2018-Feb-22 19:54N 35°22' E 139°44'0 0.0
2018-Feb-22 19:30N 35°22' E 139°44'0 0.0
2018-Feb-22 19:00N 35°22' E 139°44'0 0.0
2018-Feb-22 18:30N 35°22' E 139°44'0 0.0
2018-Feb-22 18:00N 35°22' E 139°44'0 0.0
2018-Feb-22 17:30N 35°22' E 139°44'3 6.5
2018-Feb-22 17:00N 35°18' E 139°44'5 9.9
2018-Feb-22 16:30N 35°14' E 139°47'510.1
2018-Feb-22 16:00N 35°09' E 139°44'510.3
2018-Feb-22 15:30N 35°05' E 139°40'510.5
2018-Feb-22 15:00N 35°02' E 139°36'1410.9
2018-Feb-22 13:40N 34°52' E 139°22'910.6
2018-Feb-22 12:52N 34°47' E 139°14'410.0
2018-Feb-22 12:31N 34°45' E 139°11'5 9.2
2018-Feb-22 12:00N 34°42' E 139°06'5 9.3
2018-Feb-22 11:30N 34°39' E 139°02'5 9.4
2018-Feb-22 10:58N 34°36' E 138°57'4 9.4
2018-Feb-22 10:30N 34°35' E 138°52'5 9.1
2018-Feb-22 09:55N 34°37' E 138°46'410.0
2018-Feb-22 09:29N 34°41' E 138°43'510.5
2018-Feb-22 09:00N 34°46' E 138°43'510.8
2018-Feb-22 08:31N 34°51' E 138°45'1 1.8
2018-Feb-22 07:59N 34°51' E 138°46'0 0.0
2018-Feb-22 07:30N 34°51' E 138°46'0 0.0
2018-Feb-22 07:00N 34°51' E 138°46'0 0.0
2018-Feb-22 06:31N 34°51' E 138°46'0 0.0
2018-Feb-22 06:00N 34°51' E 138°46'0 0.0
2018-Feb-22 05:31N 34°51' E 138°46'0 0.0
2018-Feb-22 05:00N 34°51' E 138°46'0 0.0
2018-Feb-22 04:30N 34°51' E 138°46'0 0.0
2018-Feb-22 04:00N 34°51' E 138°46'0 0.0
2018-Feb-22 03:30N 34°51' E 138°46'0 0.0
2018-Feb-22 03:00N 34°51' E 138°46'0 0.0
2018-Feb-22 02:30N 34°51' E 138°46'0 0.0
2018-Feb-22 02:01N 34°51' E 138°46'0 0.0
2018-Feb-22 01:30N 34°51' E 138°46'0 0.8
2018-Feb-22 01:00N 34°51' E 138°46'0 0.0
2018-Feb-22 00:31N 34°51' E 138°46'0 0.0
2018-Feb-22 00:01N 34°51' E 138°46'0 0.0
2018-Feb-21 23:30N 34°51' E 138°46'0 0.0
2018-Feb-21 23:00N 34°51' E 138°46'0 0.1
2018-Feb-21 22:30N 34°51' E 138°46'0 0.0
2018-Feb-21 22:00N 34°51' E 138°46'0 0.1
2018-Feb-21 21:31N 34°51' E 138°46'0 0.0
2018-Feb-21 21:00N 34°51' E 138°46'0 0.0
2018-Feb-21 20:31N 34°51' E 138°46'0 0.1
2018-Feb-21 20:00N 34°51' E 138°46'0 0.1
2018-Feb-21 19:30N 34°51' E 138°46'0 0.0
2018-Feb-21 19:00N 34°51' E 138°46'0 0.0
2018-Feb-21 18:30N 34°51' E 138°46'0 0.0
2018-Feb-21 18:00N 34°51' E 138°46'0 0.0
2018-Feb-21 17:30N 34°51' E 138°46'0 0.0
2018-Feb-21 16:59N 34°51' E 138°46'0 0.0
2018-Feb-21 16:31N 34°51' E 138°46'0 0.0
2018-Feb-21 16:00N 34°51' E 138°46'0 0.0
2018-Feb-21 15:30N 34°51' E 138°46'0 0.0
2018-Feb-21 15:00N 34°51' E 138°46'0 0.1
2018-Feb-21 14:31N 34°51' E 138°46'4 7.4
2018-Feb-21 14:01N 34°48' E 138°43'510.6
2018-Feb-21 13:31N 34°43' E 138°43'510.0
2018-Feb-21 13:00N 34°38' E 138°45'5 9.1
2018-Feb-21 12:29N 34°35' E 138°50'5 9.5
2018-Feb-21 12:00N 34°36' E 138°55'610.4
2018-Feb-21 11:27N 34°39' E 139°01'511.3
2018-Feb-21 10:59N 34°43' E 139°06'511.0
2018-Feb-21 10:31N 34°46' E 139°11'510.2
2018-Feb-21 10:00N 34°49' E 139°16'21 9.7
2018-Feb-21 07:48N 35°03' E 139°36'710.4
2018-Feb-21 07:10N 35°08' E 139°42'310.7
2018-Feb-21 06:52N 35°10' E 139°44'410.1
2018-Feb-21 06:31N 35°13' E 139°46'5 9.9
2018-Feb-21 06:00N 35°18' E 139°44'5 9.9
2018-Feb-21 05:30N 35°22' E 139°41'2 4.0
2018-Feb-21 05:00N 35°23' E 139°39'0 0.0
2018-Feb-21 04:30N 35°23' E 139°39'0 0.0
2018-Feb-21 04:00N 35°23' E 139°39'0 0.0
2018-Feb-21 03:30N 35°23' E 139°39'0 0.0
2018-Feb-21 03:00N 35°23' E 139°39'0 0.0
2018-Feb-21 02:31N 35°23' E 139°39'0 0.0
2018-Feb-21 02:00N 35°23' E 139°39'0 0.0
2018-Feb-21 01:30N 35°23' E 139°39'3 5.3
2018-Feb-21 01:00N 35°21' E 139°41'5 9.7
2018-Feb-21 00:30N 35°17' E 139°45'510.0
2018-Feb-21 00:01N 35°13' E 139°47'510.2
2018-Feb-20 23:30N 35°09' E 139°43'5 9.3
2018-Feb-20 23:00N 35°05' E 139°39'5 9.6
2018-Feb-20 22:29N 35°02' E 139°35'13 9.0
2018-Feb-20 20:59N 34°52' E 139°23'6 8.9
2018-Feb-20 20:17N 34°48' E 139°17'3 9.4
2018-Feb-20 20:00N 34°47' E 139°15'7 8.8
2018-Feb-20 19:09N 34°42' E 139°07'2 9.4
2018-Feb-20 18:56N 34°41' E 139°05'510.5
2018-Feb-20 18:29N 34°38' E 139°01'611.2
2018-Feb-20 18:00N 34°35' E 138°55'611.4
2018-Feb-20 17:30N 34°35' E 138°48'810.1
2018-Feb-20 16:39N 34°34' E 138°38'210.8
2018-Feb-20 16:29N 34°34' E 138°36'611.4
2018-Feb-20 15:56N 34°33' E 138°28'911.5
2018-Feb-20 15:09N 34°32' E 138°17'211.8
2018-Feb-20 15:00N 34°32' E 138°15'75 9.9
2018-Feb-20 07:24N 34°11' E 136°47'1211.2
2018-Feb-20 06:21N 34°10' E 136°33'95 5.3
2018-Feb-19 12:35N 34°34' E 138°25'1 8.5
2018-Feb-19 12:27N 34°34' E 138°26'6 8.7
2018-Feb-19 11:43N 34°34' E 138°34'12 8.8
2018-Feb-19 10:19N 34°35' E 138°49'3 9.1
2018-Feb-19 10:01N 34°35' E 138°52'6 9.8
2018-Feb-19 09:22N 34°38' E 138°59'410.7
2018-Feb-19 09:01N 34°40' E 139°03'710.7
2018-Feb-19 08:23N 34°45' E 139°08'410.1
2018-Feb-19 08:00N 34°48' E 139°11'24 9.4
2018-Feb-19 05:24N 35°03' E 139°35'4 9.8
2018-Feb-19 04:59N 35°06' E 139°39'710.4
2018-Feb-19 04:18N 35°11' E 139°45'310.4
2018-Feb-19 03:59N 35°14' E 139°46'510.1
2018-Feb-19 03:30N 35°18' E 139°44'5 9.8
2018-Feb-19 03:00N 35°23' E 139°42'5 9.7
2018-Feb-19 02:30N 35°27' E 139°40'1 3.0
2018-Feb-19 02:01N 35°28' E 139°39'0 0.0
2018-Feb-19 01:30N 35°28' E 139°39'0 0.0
2018-Feb-19 01:00N 35°28' E 139°39'0 0.0
2018-Feb-19 00:30N 35°28' E 139°39'0 0.0
2018-Feb-19 00:00N 35°28' E 139°39'0 0.0
2018-Feb-18 23:31N 35°28' E 139°39'0 0.0
2018-Feb-18 23:01N 35°28' E 139°39'0 0.0
2018-Feb-18 22:30N 35°28' E 139°39'0 0.0
2018-Feb-18 22:00N 35°28' E 139°39'0 0.0
2018-Feb-18 21:29N 35°28' E 139°39'0 0.0
2018-Feb-18 20:59N 35°28' E 139°39'0 0.0
2018-Feb-18 20:29N 35°28' E 139°39'0 0.0
2018-Feb-18 19:59N 35°28' E 139°39'0 0.0
2018-Feb-18 19:29N 35°28' E 139°39'0 0.0
2018-Feb-18 18:59N 35°28' E 139°39'0 0.0
2018-Feb-18 18:29N 35°28' E 139°39'0 0.0
2018-Feb-18 17:59N 35°28' E 139°39'0 0.0
2018-Feb-18 17:29N 35°28' E 139°39'0 0.0
2018-Feb-18 16:59N 35°28' E 139°39'0 0.0
2018-Feb-18 16:29N 35°28' E 139°39'0 0.0
2018-Feb-18 15:59N 35°28' E 139°39'0 0.0
2018-Feb-18 15:29N 35°28' E 139°39'0 0.0
2018-Feb-18 14:59N 35°28' E 139°39'0 0.0
2018-Feb-18 14:29N 35°28' E 139°39'0 0.0
2018-Feb-18 13:59N 35°28' E 139°39'0 0.0
2018-Feb-18 13:29N 35°28' E 139°39'0 0.0
2018-Feb-18 12:59N 35°28' E 139°39'0 0.0
2018-Feb-18 12:29N 35°28' E 139°39'0 0.0
2018-Feb-18 11:59N 35°28' E 139°39'0 0.0
2018-Feb-18 11:29N 35°28' E 139°39'0 0.0
2018-Feb-18 10:59N 35°28' E 139°39'0 0.0
2018-Feb-18 10:29N 35°28' E 139°39'0 0.0
2018-Feb-18 09:59N 35°28' E 139°39'0 0.0
2018-Feb-18 09:29N 35°28' E 139°39'0 0.0
2018-Feb-18 08:59N 35°28' E 139°39'0 0.0
2018-Feb-18 08:29N 35°28' E 139°39'0 0.0
2018-Feb-18 07:59N 35°28' E 139°39'0 0.0
2018-Feb-18 07:29N 35°28' E 139°39'0 0.0
2018-Feb-18 06:59N 35°28' E 139°39'0 0.0
2018-Feb-18 06:29N 35°28' E 139°39'0 0.0
2018-Feb-18 05:59N 35°28' E 139°39'0 0.0
2018-Feb-18 05:29N 35°28' E 139°39'0 0.0
2018-Feb-18 04:59N 35°28' E 139°39'0 0.0
2018-Feb-18 04:29N 35°28' E 139°39'0 0.0
2018-Feb-18 03:59N 35°28' E 139°39'0 0.0
2018-Feb-18 03:29N 35°28' E 139°39'0 0.0
2018-Feb-18 02:59N 35°28' E 139°39'0 0.0
2018-Feb-18 02:29N 35°28' E 139°39'0 0.0
2018-Feb-18 01:59N 35°28' E 139°39'0 0.0
2018-Feb-18 01:29N 35°28' E 139°39'0 0.0
2018-Feb-18 00:59N 35°28' E 139°39'0 0.0
2018-Feb-18 00:29N 35°28' E 139°39'0 0.0
2018-Feb-17 23:59N 35°28' E 139°39'0 0.0
2018-Feb-17 23:30N 35°28' E 139°39'0 0.7
2018-Feb-17 23:00N 35°28' E 139°39'2 4.4
2018-Feb-17 22:30N 35°27' E 139°41'4 8.5
2018-Feb-17 22:00N 35°23' E 139°44'2 3.6
2018-Feb-17 21:31N 35°22' E 139°44'0 0.1
2018-Feb-17 20:58N 35°22' E 139°44'0 0.1
2018-Feb-17 20:28N 35°22' E 139°44'0 0.1
2018-Feb-17 19:58N 35°22' E 139°44'0 0.0
2018-Feb-17 19:28N 35°22' E 139°44'0 0.0
2018-Feb-17 18:58N 35°22' E 139°44'0 0.0
2018-Feb-17 18:28N 35°22' E 139°44'0 0.0
2018-Feb-17 17:58N 35°22' E 139°44'0 0.0
2018-Feb-17 17:28N 35°22' E 139°44'0 0.0
2018-Feb-17 16:58N 35°22' E 139°44'0 0.0
2018-Feb-17 16:28N 35°22' E 139°44'0 0.0
2018-Feb-17 15:58N 35°22' E 139°44'0 0.0
2018-Feb-17 15:30N 35°22' E 139°44'3 5.2
2018-Feb-17 15:00N 35°19' E 139°44'4 9.2
2018-Feb-17 14:30N 35°15' E 139°47'4 8.5
2018-Feb-17 14:00N 35°11' E 139°47'5 9.4
2018-Feb-17 13:30N 35°06' E 139°46'19 5.2
2018-Feb-17 09:54N 34°58' E 140°06'  
2018-Feb-15 05:19N 41°29' E 141°23'411.7
2018-Feb-15 05:00N 41°30' E 141°18'612.5
2018-Feb-15 04:30N 41°31' E 141°10'612.1
2018-Feb-15 04:00N 41°33' E 141°02'511.0
2018-Feb-15 03:30N 41°35' E 140°55'5 9.8
2018-Feb-15 03:00N 41°32' E 140°50'510.1
2018-Feb-15 02:30N 41°27' E 140°47'5 9.8
2018-Feb-15 02:00N 41°22' E 140°46'5 9.2
2018-Feb-15 01:28N 41°17' E 140°44'3 5.8
2018-Feb-15 00:56N 41°14' E 140°44'16 6.6
2018-Feb-14 22:30N 41°08' E 141°04'8 8.5
2018-Feb-14 21:36N 41°14' E 141°10'210.3
2018-Feb-14 21:25N 41°16' E 141°11'  
Track history (hours):
 
Tides and Currents Weather Stations Pressure Air Temp Water Temp Dewpoint Dewpoint Depression Visibility Wind Speed Wind Dir Waves Ship Positions

Syoueimaru

Last reported at 2018-Feb-24 18:22 UTC. Time now 2018-Feb-26 03:52 UTC.
Position N 34°21' E 134°26'.

Length 79 m; draft 4.1 m.

Type: Other ship. MMSI: 431500094.

Date/timePositionNaut miles runAvg speedWind from/ knotsBaromVisibWave heightAir tempDewpointWater temp
2018-Feb-24 18:22N 34°21' E 134°26'511.3
2018-Feb-24 17:56N 34°19' E 134°31'811.2
2018-Feb-24 17:14N 34°14' E 134°39'311.5
2018-Feb-24 16:58N 34°12' E 134°41'611.7
2018-Feb-24 16:29N 34°08' E 134°46'510.4
2018-Feb-24 16:00N 34°04' E 134°50'610.5
2018-Feb-24 15:29N 33°60' E 134°54'510.5
2018-Feb-24 14:58N 33°56' E 134°58'510.4
2018-Feb-24 14:29N 33°52' E 135°02'119 5.9
2018-Feb-23 18:25N 34°30' E 137°18'54 8.7
2018-Feb-23 12:11N 34°34' E 138°24'2 8.2
2018-Feb-23 11:58N 34°34' E 138°26'6 8.2
2018-Feb-23 11:15N 34°35' E 138°33'4 7.7
2018-Feb-23 10:46N 34°35' E 138°38'2 7.7
2018-Feb-23 10:27N 34°35' E 138°41'4 7.6
2018-Feb-23 09:59N 34°35' E 138°45'4 8.2
2018-Feb-23 09:28N 34°35' E 138°50'4 8.8
2018-Feb-23 09:00N 34°36' E 138°55'7 9.4
2018-Feb-23 08:13N 34°40' E 139°03'310.4
2018-Feb-23 07:56N 34°42' E 139°05'510.6
2018-Feb-23 07:27N 34°46' E 139°10'810.1
2018-Feb-23 06:39N 34°50' E 139°17'3 9.5
2018-Feb-23 06:17N 34°53' E 139°21'1010.1
2018-Feb-23 05:19N 34°59' E 139°30'310.2
2018-Feb-23 05:00N 35°01' E 139°33'510.6
2018-Feb-23 04:30N 35°05' E 139°37'510.4
2018-Feb-23 04:00N 35°08' E 139°42'510.5
2018-Feb-23 03:30N 35°12' E 139°46'510.2
2018-Feb-23 03:00N 35°17' E 139°44'510.6
2018-Feb-23 02:30N 35°22' E 139°41'2 4.3
2018-Feb-23 02:00N 35°23' E 139°39'0 0.0
2018-Feb-23 01:30N 35°23' E 139°39'0 0.0
2018-Feb-23 01:00N 35°23' E 139°39'0 0.0
2018-Feb-23 00:30N 35°23' E 139°39'0 0.0
2018-Feb-23 00:00N 35°23' E 139°39'0 0.0
2018-Feb-22 23:30N 35°23' E 139°39'0 0.0
2018-Feb-22 23:00N 35°23' E 139°39'1 2.5
2018-Feb-22 22:30N 35°23' E 139°41'3 6.0
2018-Feb-22 22:00N 35°22' E 139°44'0 0.0
2018-Feb-22 21:30N 35°22' E 139°44'0 0.0
2018-Feb-22 20:57N 35°22' E 139°44'0 0.0
2018-Feb-22 20:30N 35°22' E 139°44'0 0.0
2018-Feb-22 19:54N 35°22' E 139°44'0 0.0
2018-Feb-22 19:30N 35°22' E 139°44'0 0.0
2018-Feb-22 19:00N 35°22' E 139°44'0 0.0
2018-Feb-22 18:30N 35°22' E 139°44'0 0.0
2018-Feb-22 18:00N 35°22' E 139°44'0 0.0
2018-Feb-22 17:30N 35°22' E 139°44'3 6.5
2018-Feb-22 17:00N 35°18' E 139°44'5 9.9
2018-Feb-22 16:30N 35°14' E 139°47'510.1
2018-Feb-22 16:00N 35°09' E 139°44'510.3
2018-Feb-22 15:30N 35°05' E 139°40'510.5
2018-Feb-22 15:00N 35°02' E 139°36'1410.9
2018-Feb-22 13:40N 34°52' E 139°22'910.6
2018-Feb-22 12:52N 34°47' E 139°14'410.0
2018-Feb-22 12:31N 34°45' E 139°11'5 9.2
2018-Feb-22 12:00N 34°42' E 139°06'5 9.3
2018-Feb-22 11:30N 34°39' E 139°02'5 9.4
2018-Feb-22 10:58N 34°36' E 138°57'4 9.4
2018-Feb-22 10:30N 34°35' E 138°52'5 9.1
2018-Feb-22 09:55N 34°37' E 138°46'410.0
2018-Feb-22 09:29N 34°41' E 138°43'510.5
2018-Feb-22 09:00N 34°46' E 138°43'510.8
2018-Feb-22 08:31N 34°51' E 138°45'1 1.8
2018-Feb-22 07:59N 34°51' E 138°46'0 0.0
2018-Feb-22 07:30N 34°51' E 138°46'0 0.0
2018-Feb-22 07:00N 34°51' E 138°46'0 0.0
2018-Feb-22 06:31N 34°51' E 138°46'0 0.0
2018-Feb-22 06:00N 34°51' E 138°46'0 0.0
2018-Feb-22 05:31N 34°51' E 138°46'0 0.0
2018-Feb-22 05:00N 34°51' E 138°46'0 0.0
2018-Feb-22 04:30N 34°51' E 138°46'0 0.0
2018-Feb-22 04:00N 34°51' E 138°46'0 0.0
2018-Feb-22 03:30N 34°51' E 138°46'0 0.0
2018-Feb-22 03:00N 34°51' E 138°46'0 0.0
2018-Feb-22 02:30N 34°51' E 138°46'0 0.0
2018-Feb-22 02:01N 34°51' E 138°46'0 0.0
2018-Feb-22 01:30N 34°51' E 138°46'0 0.8
2018-Feb-22 01:00N 34°51' E 138°46'0 0.0
2018-Feb-22 00:31N 34°51' E 138°46'0 0.0
2018-Feb-22 00:01N 34°51' E 138°46'0 0.0
2018-Feb-21 23:30N 34°51' E 138°46'0 0.0
2018-Feb-21 23:00N 34°51' E 138°46'0 0.1
2018-Feb-21 22:30N 34°51' E 138°46'0 0.0
2018-Feb-21 22:00N 34°51' E 138°46'0 0.1
2018-Feb-21 21:31N 34°51' E 138°46'0 0.0
2018-Feb-21 21:00N 34°51' E 138°46'0 0.0
2018-Feb-21 20:31N 34°51' E 138°46'0 0.1
2018-Feb-21 20:00N 34°51' E 138°46'0 0.1
2018-Feb-21 19:30N 34°51' E 138°46'0 0.0
2018-Feb-21 19:00N 34°51' E 138°46'0 0.0
2018-Feb-21 18:30N 34°51' E 138°46'0 0.0
2018-Feb-21 18:00N 34°51' E 138°46'0 0.0
2018-Feb-21 17:30N 34°51' E 138°46'0 0.0
2018-Feb-21 16:59N 34°51' E 138°46'0 0.0
2018-Feb-21 16:31N 34°51' E 138°46'0 0.0
2018-Feb-21 16:00N 34°51' E 138°46'0 0.0
2018-Feb-21 15:30N 34°51' E 138°46'0 0.0
2018-Feb-21 15:00N 34°51' E 138°46'0 0.1
2018-Feb-21 14:31N 34°51' E 138°46'4 7.4
2018-Feb-21 14:01N 34°48' E 138°43'510.6
2018-Feb-21 13:31N 34°43' E 138°43'510.0
2018-Feb-21 13:00N 34°38' E 138°45'5 9.1
2018-Feb-21 12:29N 34°35' E 138°50'5 9.5
2018-Feb-21 12:00N 34°36' E 138°55'610.4
2018-Feb-21 11:27N 34°39' E 139°01'511.3
2018-Feb-21 10:59N 34°43' E 139°06'511.0
2018-Feb-21 10:31N 34°46' E 139°11'510.2
2018-Feb-21 10:00N 34°49' E 139°16'21 9.7
2018-Feb-21 07:48N 35°03' E 139°36'710.4
2018-Feb-21 07:10N 35°08' E 139°42'310.7
2018-Feb-21 06:52N 35°10' E 139°44'410.1
2018-Feb-21 06:31N 35°13' E 139°46'5 9.9
2018-Feb-21 06:00N 35°18' E 139°44'5 9.9
2018-Feb-21 05:30N 35°22' E 139°41'2 4.0
2018-Feb-21 05:00N 35°23' E 139°39'0 0.0
2018-Feb-21 04:30N 35°23' E 139°39'0 0.0
2018-Feb-21 04:00N 35°23' E 139°39'0 0.0
2018-Feb-21 03:30N 35°23' E 139°39'0 0.0
2018-Feb-21 03:00N 35°23' E 139°39'0 0.0
2018-Feb-21 02:31N 35°23' E 139°39'0 0.0
2018-Feb-21 02:00N 35°23' E 139°39'0 0.0
2018-Feb-21 01:30N 35°23' E 139°39'3 5.3
2018-Feb-21 01:00N 35°21' E 139°41'5 9.7
2018-Feb-21 00:30N 35°17' E 139°45'510.0
2018-Feb-21 00:01N 35°13' E 139°47'510.2
2018-Feb-20 23:30N 35°09' E 139°43'5 9.3
2018-Feb-20 23:00N 35°05' E 139°39'5 9.6
2018-Feb-20 22:29N 35°02' E 139°35'13 9.0
2018-Feb-20 20:59N 34°52' E 139°23'6 8.9
2018-Feb-20 20:17N 34°48' E 139°17'3 9.4
2018-Feb-20 20:00N 34°47' E 139°15'7 8.8
2018-Feb-20 19:09N 34°42' E 139°07'2 9.4
2018-Feb-20 18:56N 34°41' E 139°05'510.5
2018-Feb-20 18:29N 34°38' E 139°01'611.2
2018-Feb-20 18:00N 34°35' E 138°55'611.4
2018-Feb-20 17:30N 34°35' E 138°48'810.1
2018-Feb-20 16:39N 34°34' E 138°38'210.8
2018-Feb-20 16:29N 34°34' E 138°36'611.4
2018-Feb-20 15:56N 34°33' E 138°28'911.5
2018-Feb-20 15:09N 34°32' E 138°17'211.8
2018-Feb-20 15:00N 34°32' E 138°15'75 9.9
2018-Feb-20 07:24N 34°11' E 136°47'1211.2
2018-Feb-20 06:21N 34°10' E 136°33'95 5.3
2018-Feb-19 12:35N 34°34' E 138°25'1 8.5
2018-Feb-19 12:27N 34°34' E 138°26'6 8.7
2018-Feb-19 11:43N 34°34' E 138°34'12 8.8
2018-Feb-19 10:19N 34°35' E 138°49'3 9.1
2018-Feb-19 10:01N 34°35' E 138°52'6 9.8
2018-Feb-19 09:22N 34°38' E 138°59'410.7
2018-Feb-19 09:01N 34°40' E 139°03'710.7
2018-Feb-19 08:23N 34°45' E 139°08'410.1
2018-Feb-19 08:00N 34°48' E 139°11'24 9.4
2018-Feb-19 05:24N 35°03' E 139°35'4 9.8
2018-Feb-19 04:59N 35°06' E 139°39'710.4
2018-Feb-19 04:18N 35°11' E 139°45'310.4
2018-Feb-19 03:59N 35°14' E 139°46'510.1
2018-Feb-19 03:30N 35°18' E 139°44'5 9.8
2018-Feb-19 03:00N 35°23' E 139°42'5 9.7
2018-Feb-19 02:30N 35°27' E 139°40'1 3.0
2018-Feb-19 02:01N 35°28' E 139°39'0 0.0
2018-Feb-19 01:30N 35°28' E 139°39'0 0.0
2018-Feb-19 01:00N 35°28' E 139°39'0 0.0
2018-Feb-19 00:30N 35°28' E 139°39'0 0.0
2018-Feb-19 00:00N 35°28' E 139°39'0 0.0
2018-Feb-18 23:31N 35°28' E 139°39'0 0.0
2018-Feb-18 23:01N 35°28' E 139°39'0 0.0
2018-Feb-18 22:30N 35°28' E 139°39'0 0.0
2018-Feb-18 22:00N 35°28' E 139°39'0 0.0
2018-Feb-18 21:29N 35°28' E 139°39'0 0.0
2018-Feb-18 20:59N 35°28' E 139°39'0 0.0
2018-Feb-18 20:29N 35°28' E 139°39'0 0.0
2018-Feb-18 19:59N 35°28' E 139°39'0 0.0
2018-Feb-18 19:29N 35°28' E 139°39'0 0.0
2018-Feb-18 18:59N 35°28' E 139°39'0 0.0
2018-Feb-18 18:29N 35°28' E 139°39'0 0.0
2018-Feb-18 17:59N 35°28' E 139°39'0 0.0
2018-Feb-18 17:29N 35°28' E 139°39'0 0.0
2018-Feb-18 16:59N 35°28' E 139°39'0 0.0
2018-Feb-18 16:29N 35°28' E 139°39'0 0.0
2018-Feb-18 15:59N 35°28' E 139°39'0 0.0
2018-Feb-18 15:29N 35°28' E 139°39'0 0.0
2018-Feb-18 14:59N 35°28' E 139°39'0 0.0
2018-Feb-18 14:29N 35°28' E 139°39'0 0.0
2018-Feb-18 13:59N 35°28' E 139°39'0 0.0
2018-Feb-18 13:29N 35°28' E 139°39'0 0.0
2018-Feb-18 12:59N 35°28' E 139°39'0 0.0
2018-Feb-18 12:29N 35°28' E 139°39'0 0.0
2018-Feb-18 11:59N 35°28' E 139°39'0 0.0
2018-Feb-18 11:29N 35°28' E 139°39'0 0.0
2018-Feb-18 10:59N 35°28' E 139°39'0 0.0
2018-Feb-18 10:29N 35°28' E 139°39'0 0.0
2018-Feb-18 09:59N 35°28' E 139°39'0 0.0
2018-Feb-18 09:29N 35°28' E 139°39'0 0.0
2018-Feb-18 08:59N 35°28' E 139°39'0 0.0
2018-Feb-18 08:29N 35°28' E 139°39'0 0.0
2018-Feb-18 07:59N 35°28' E 139°39'0 0.0
2018-Feb-18 07:29N 35°28' E 139°39'0 0.0
2018-Feb-18 06:59N 35°28' E 139°39'0 0.0
2018-Feb-18 06:29N 35°28' E 139°39'0 0.0
2018-Feb-18 05:59N 35°28' E 139°39'0 0.0
2018-Feb-18 05:29N 35°28' E 139°39'0 0.0
2018-Feb-18 04:59N 35°28' E 139°39'0 0.0
2018-Feb-18 04:29N 35°28' E 139°39'0 0.0
2018-Feb-18 03:59N 35°28' E 139°39'0 0.0
2018-Feb-18 03:29N 35°28' E 139°39'0 0.0
2018-Feb-18 02:59N 35°28' E 139°39'0 0.0
2018-Feb-18 02:29N 35°28' E 139°39'0 0.0
2018-Feb-18 01:59N 35°28' E 139°39'0 0.0
2018-Feb-18 01:29N 35°28' E 139°39'0 0.0
2018-Feb-18 00:59N 35°28' E 139°39'0 0.0
2018-Feb-18 00:29N 35°28' E 139°39'0 0.0
2018-Feb-17 23:59N 35°28' E 139°39'0 0.0
2018-Feb-17 23:30N 35°28' E 139°39'0 0.7
2018-Feb-17 23:00N 35°28' E 139°39'2 4.4
2018-Feb-17 22:30N 35°27' E 139°41'4 8.5
2018-Feb-17 22:00N 35°23' E 139°44'2 3.6
2018-Feb-17 21:31N 35°22' E 139°44'0 0.1
2018-Feb-17 20:58N 35°22' E 139°44'0 0.1
2018-Feb-17 20:28N 35°22' E 139°44'0 0.1
2018-Feb-17 19:58N 35°22' E 139°44'0 0.0
2018-Feb-17 19:28N 35°22' E 139°44'0 0.0
2018-Feb-17 18:58N 35°22' E 139°44'0 0.0
2018-Feb-17 18:28N 35°22' E 139°44'0 0.0
2018-Feb-17 17:58N 35°22' E 139°44'0 0.0
2018-Feb-17 17:28N 35°22' E 139°44'0 0.0
2018-Feb-17 16:58N 35°22' E 139°44'0 0.0
2018-Feb-17 16:28N 35°22' E 139°44'0 0.0
2018-Feb-17 15:58N 35°22' E 139°44'0 0.0
2018-Feb-17 15:30N 35°22' E 139°44'3 5.2
2018-Feb-17 15:00N 35°19' E 139°44'4 9.2
2018-Feb-17 14:30N 35°15' E 139°47'4 8.5
2018-Feb-17 14:00N 35°11' E 139°47'5 9.4
2018-Feb-17 13:30N 35°06' E 139°46'19 5.2
2018-Feb-17 09:54N 34°58' E 140°06'  
2018-Feb-15 05:19N 41°29' E 141°23'411.7
2018-Feb-15 05:00N 41°30' E 141°18'612.5
2018-Feb-15 04:30N 41°31' E 141°10'612.1
2018-Feb-15 04:00N 41°33' E 141°02'511.0
2018-Feb-15 03:30N 41°35' E 140°55'5 9.8
2018-Feb-15 03:00N 41°32' E 140°50'510.1
2018-Feb-15 02:30N 41°27' E 140°47'5 9.8
2018-Feb-15 02:00N 41°22' E 140°46'5 9.2
2018-Feb-15 01:28N 41°17' E 140°44'3 5.8
2018-Feb-15 00:56N 41°14' E 140°44'16 6.6
2018-Feb-14 22:30N 41°08' E 141°04'8 8.5
2018-Feb-14 21:36N 41°14' E 141°10'210.3
2018-Feb-14 21:25N 41°16' E 141°11'  

Dump ship's entire track history